Terminal Aerodrome Forecast
Issued by NWS

Home | Current Version | Previous Version | Text Only | Print | Product List | Glossary On
Versions: 1 2 3 4 5 6 7 8 9 10 11 12 13 14 15 16
928
FTUS43 KEAX 270619 AAA
TAFSTJ
TAF AMD
KSTJ 270619Z 2706/2806 31010KT P6SM OVC040
     FM271500 31007KT P6SM SCT035
     FM271600 27006KT P6SM FEW200
     FM272000 22006KT P6SM BKN100=

USA.gov is the U.S. government's official web portal to all federal, state and local government web resources and services.